Time;durP1;ratioP1;P1;durP2;ratioP2;P2;SDS_P1;SDS_P2;PMS_P1;PMS_P2;Temp;Humidity;BMP_temperature;BMP_pressure;BME280_temperature;BME280_humidity;BME280_pressure;Samples;Min_cycle;Max_cycle;Signal;HPM_P1;HPM_P2
2022/05/20 00:02:26;;;;;;;21.80;18.07;;;15.70;99.90;;;;;;5022334;28;20214;-54
2022/05/20 00:04:53;;;;;;;24.00;18.67;;;15.60;99.90;;;;;;5023120;28;20753;-54
2022/05/20 00:07:20;;;;;;;23.80;17.47;;;15.60;99.90;;;;;;5024241;28;20222;-54
2022/05/20 00:09:46;;;;;;;21.00;17.70;;;15.70;99.90;;;;;;5019091;28;20203;-54
2022/05/20 00:12:13;;;;;;;26.83;19.07;;;15.70;99.90;;;;;;5006930;28;21175;-54
2022/05/20 00:14:40;;;;;;;21.20;17.77;;;15.60;99.90;;;;;;5014478;28;20313;-54
2022/05/20 00:17:07;;;;;;;24.47;18.27;;;15.60;99.90;;;;;;5022215;28;20215;-54
2022/05/20 00:19:34;;;;;;;27.20;19.33;;;15.60;99.90;;;;;;5023163;28;20662;-53
2022/05/20 00:22:02;;;;;;;23.70;18.87;;;15.60;99.90;;;;;;5020198;28;20229;-54
2022/05/20 00:24:29;;;;;;;23.43;18.73;;;15.40;99.90;;;;;;5020838;28;20204;-53
2022/05/20 00:26:56;;;;;;;24.07;19.03;;;15.50;99.90;;;;;;5021870;28;20319;-54
2022/05/20 00:29:24;;;;;;;21.77;17.67;;;15.60;99.90;;;;;;5020982;28;20209;-54
2022/05/20 00:31:51;;;;;;;21.43;18.23;;;15.50;99.90;;;;;;5019555;28;20456;-54
2022/05/20 00:34:19;;;;;;;22.53;18.90;;;15.50;99.90;;;;;;5023046;28;20212;-54
2022/05/20 00:36:45;;;;;;;26.43;19.43;;;15.50;99.90;;;;;;5018991;28;20658;-53
2022/05/20 00:39:13;;;;;;;25.10;19.13;;;15.50;99.90;;;;;;5018576;28;20227;-53
2022/05/20 00:41:39;;;;;;;23.10;19.27;;;15.50;99.90;;;;;;5019271;28;20714;-53
2022/05/20 00:44:06;;;;;;;24.50;19.97;;;15.40;99.90;;;;;;5019236;28;20319;-53
2022/05/20 00:46:33;;;;;;;25.70;19.63;;;15.40;99.90;;;;;;5021420;28;20203;-53
2022/05/20 00:49:05;;;;;;;22.63;18.80;;;15.40;99.90;;;;;;5024416;28;20196;-54
2022/05/20 00:51:48;;;;;;;23.57;18.80;;;15.30;99.90;;;;;;5028951;28;20727;-53
2022/05/20 00:54:23;;;;;;;24.53;19.77;;;15.40;99.90;;;;;;5018947;28;20597;-53
2022/05/20 00:56:56;;;;;;;26.17;20.37;;;15.40;99.90;;;;;;5017933;28;20205;-53
2022/05/20 00:59:28;;;;;;;27.70;20.90;;;15.30;99.90;;;;;;5021192;28;20207;-53
2022/05/20 01:01:58;;;;;;;25.67;21.37;;;15.20;99.90;;;;;;5020880;28;21092;-53
2022/05/20 01:04:26;;;;;;;25.60;18.87;;;15.30;99.90;;;;;;4980366;28;1126350;-53
2022/05/20 01:06:53;;;;;;;29.07;21.70;;;15.20;99.90;;;;;;5020986;28;20825;-53
2022/05/20 01:09:20;;;;;;;26.30;20.57;;;15.20;99.90;;;;;;5018749;28;20275;-53
2022/05/20 01:11:47;;;;;;;26.73;19.80;;;15.10;99.90;;;;;;5017411;28;20290;-53
2022/05/20 01:14:26;;;;;;;27.00;21.87;;;15.10;99.90;;;;;;5016709;28;20203;-54
2022/05/20 01:16:53;;;;;;;26.20;21.43;;;15.10;99.90;;;;;;5022409;28;20294;-54
2022/05/20 01:19:53;;;;;;;27.90;20.97;;;15.10;99.90;;;;;;5024540;28;20551;-54
2022/05/20 01:22:44;;;;;;;23.70;20.87;;;15.10;99.90;;;;;;5020766;28;20306;-54
2022/05/20 01:25:11;;;;;;;26.20;20.33;;;15.10;99.90;;;;;;5016429;28;20211;-53
2022/05/20 01:27:42;;;;;;;28.60;21.10;;;15.10;99.90;;;;;;5015885;28;20551;-54
2022/05/20 01:30:16;;;;;;;28.20;21.57;;;15.10;99.90;;;;;;5020900;28;20214;-54
2022/05/20 01:32:43;;;;;;;24.57;19.80;;;15.10;99.90;;;;;;5021282;28;20296;-53
2022/05/20 01:35:15;;;;;;;23.20;20.20;;;15.10;99.90;;;;;;5019584;28;20289;-53
2022/05/20 01:37:41;;;;;;;24.33;20.93;;;15.00;99.90;;;;;;5017262;28;20301;-54
2022/05/20 01:40:11;;;;;;;28.90;20.70;;;14.90;99.90;;;;;;5014853;28;21318;-53
2022/05/20 01:43:07;;;;;;;25.17;20.73;;;14.90;99.90;;;;;;5016183;28;20326;-54
2022/05/20 01:46:09;;;;;;;23.93;20.03;;;15.00;99.90;;;;;;5019525;28;20619;-53
2022/05/20 01:48:42;;;;;;;27.60;19.77;;;15.00;99.90;;;;;;5021726;28;20641;-54
2022/05/20 01:51:14;;;;;;;25.03;19.80;;;15.00;99.90;;;;;;5023696;28;20215;-54
2022/05/20 01:53:50;;;;;;;22.17;19.50;;;15.00;99.90;;;;;;5016976;28;20311;-54
2022/05/20 01:56:19;;;;;;;22.73;20.23;;;14.90;99.90;;;;;;5021418;28;20209;-53
2022/05/20 01:59:27;;;;;;;22.67;18.97;;;14.80;99.90;;;;;;5017265;28;20212;-54
2022/05/20 02:02:26;;;;;;;23.40;19.27;;;14.70;99.90;;;;;;4984141;28;20218;-54
2022/05/20 02:04:59;;;;;;;24.80;19.13;;;14.50;99.90;;;;;;4972744;28;20723;-53
2022/05/20 02:07:30;;;;;;;21.27;18.67;;;14.20;99.90;;;;;;4972915;28;20687;-54
2022/05/20 02:10:04;;;;;;;21.23;19.00;;;14.30;99.90;;;;;;4979156;28;20209;-54
2022/05/20 02:12:36;;;;;;;22.50;19.87;;;14.40;99.90;;;;;;4976083;28;20253;-54
2022/05/20 02:15:35;;;;;;;20.43;18.23;;;14.40;99.90;;;;;;4977393;28;20687;-53
2022/05/20 02:18:05;;;;;;;20.60;18.40;;;14.50;99.90;;;;;;4976266;28;20227;-54
2022/05/20 02:20:40;;;;;;;22.27;19.40;;;14.50;99.90;;;;;;4979246;28;20219;-53
2022/05/20 02:23:13;;;;;;;22.03;18.50;;;14.50;99.90;;;;;;4978456;28;20223;-57
2022/05/20 02:25:48;;;;;;;20.87;18.67;;;14.40;99.90;;;;;;4978629;28;20298;-55
2022/05/20 02:28:27;;;;;;;21.67;18.90;;;14.40;99.90;;;;;;4972898;28;20295;-53
2022/05/20 02:30:55;;;;;;;22.07;19.63;;;14.40;99.90;;;;;;4979627;28;20219;-54
2022/05/20 02:33:25;;;;;;;21.30;19.00;;;14.30;99.90;;;;;;4978633;28;20632;-55
2022/05/20 02:35:59;;;;;;;21.57;18.53;;;14.30;99.90;;;;;;4998448;28;20206;-52
2022/05/20 02:38:26;;;;;;;20.10;18.07;;;14.30;99.90;;;;;;5013685;28;20291;-53
2022/05/20 02:40:54;;;;;;;20.40;18.20;;;14.30;99.90;;;;;;5018297;28;20285;-54
2022/05/20 02:43:22;;;;;;;20.37;18.23;;;14.30;99.90;;;;;;5016827;28;20330;-54
2022/05/20 02:45:51;;;;;;;20.90;18.63;;;14.30;99.90;;;;;;5020891;28;20198;-54
2022/05/20 02:48:20;;;;;;;22.63;18.67;;;14.30;99.90;;;;;;5019899;28;20296;-54
2022/05/20 02:50:49;;;;;;;19.07;17.07;;;14.30;99.90;;;;;;5024377;28;20205;-53
2022/05/20 02:53:17;;;;;;;20.77;17.40;;;14.30;99.90;;;;;;5016229;28;20209;-53
2022/05/20 02:55:44;;;;;;;20.67;18.47;;;14.30;99.90;;;;;;5019868;28;20209;-54
2022/05/20 03:04:09;;;;;;;21.33;17.60;;;14.30;99.90;;;;;;5019085;28;20637;-54
2022/05/20 03:04:10;;;;;;;20.80;16.87;;;14.20;99.90;;;;;;5019624;28;20687;-54
2022/05/20 03:06:49;;;;;;;19.63;17.53;;;14.30;99.90;;;;;;5018926;28;20285;-54
2022/05/20 03:09:19;;;;;;;20.37;17.67;;;14.20;99.90;;;;;;5019512;28;20246;-54
2022/05/20 03:11:47;;;;;;;20.53;16.80;;;14.10;99.90;;;;;;5017085;28;20301;-54
2022/05/20 03:14:16;;;;;;;18.30;16.30;;;14.00;99.90;;;;;;5018416;28;20323;-54
2022/05/20 03:16:43;;;;;;;18.47;16.57;;;14.00;99.90;;;;;;5019806;28;20218;-55
2022/05/20 03:19:11;;;;;;;19.43;16.87;;;14.00;99.90;;;;;;5019342;28;20212;-54
2022/05/20 03:21:39;;;;;;;18.53;16.67;;;14.10;99.90;;;;;;5020861;28;20197;-54
2022/05/20 03:24:07;;;;;;;18.20;16.33;;;14.10;99.90;;;;;;5022037;28;20220;-53
2022/05/20 03:26:35;;;;;;;18.43;15.77;;;14.00;99.90;;;;;;5019555;28;20213;-54
2022/05/20 03:29:04;;;;;;;18.83;16.93;;;14.00;99.90;;;;;;5016284;28;20300;-54
2022/05/20 03:31:33;;;;;;;19.10;17.07;;;14.00;99.90;;;;;;5017052;28;20206;-53
2022/05/20 03:34:05;;;;;;;19.00;17.00;;;13.90;99.90;;;;;;5020399;28;20199;-54
2022/05/20 03:36:44;;;;;;;17.83;16.03;;;13.90;99.90;;;;;;5018917;28;20333;-53
2022/05/20 03:39:14;;;;;;;20.47;16.53;;;13.90;99.90;;;;;;5018238;28;20257;-54
2022/05/20 03:41:41;;;;;;;18.30;16.40;;;13.90;99.90;;;;;;5017762;28;20650;-53
2022/05/20 03:44:10;;;;;;;17.70;15.17;;;13.80;99.90;;;;;;5015080;28;20400;-53
2022/05/20 03:46:42;;;;;;;18.90;14.97;;;13.90;99.90;;;;;;5020335;28;20564;-54
2022/05/20 03:49:10;;;;;;;16.70;15.07;;;14.00;99.90;;;;;;5023313;28;20747;-54
2022/05/20 03:51:37;;;;;;;16.93;15.30;;;14.00;99.90;;;;;;5020795;28;20296;-53
2022/05/20 03:54:04;;;;;;;17.60;15.80;;;14.00;99.90;;;;;;5019703;28;20269;-54
2022/05/20 03:56:32;;;;;;;19.40;16.77;;;13.90;99.90;;;;;;5023206;28;20585;-53
2022/05/20 03:58:59;;;;;;;18.37;16.47;;;13.90;99.90;;;;;;5019185;28;20622;-53
2022/05/20 04:04:11;;;;;;;19.17;17.13;;;13.80;99.90;;;;;;5023177;28;20329;-55
2022/05/20 04:06:38;;;;;;;19.77;17.50;;;13.80;99.90;;;;;;5019994;28;20225;-53
2022/05/20 04:09:05;;;;;;;22.23;18.00;;;13.80;99.90;;;;;;5017724;28;20255;-53
2022/05/20 04:11:32;;;;;;;21.33;18.23;;;13.80;99.90;;;;;;5021592;28;20280;-53
2022/05/20 04:13:59;;;;;;;19.70;17.63;;;13.80;99.90;;;;;;5018432;28;20231;-54
2022/05/20 04:16:25;;;;;;;21.63;18.53;;;13.90;99.90;;;;;;5020353;28;21032;-54
2022/05/20 04:18:53;;;;;;;19.83;17.73;;;13.90;99.90;;;;;;5023110;28;20248;-54
2022/05/20 04:21:19;;;;;;;20.80;18.57;;;13.80;99.90;;;;;;5022142;28;20226;-53
2022/05/20 04:23:46;;;;;;;20.67;17.80;;;13.80;99.90;;;;;;5021995;28;20811;-53
2022/05/20 04:26:13;;;;;;;22.57;17.77;;;13.70;99.90;;;;;;5022024;28;20320;-53
2022/05/20 04:28:40;;;;;;;19.70;17.63;;;13.80;99.90;;;;;;5020358;28;20201;-54
2022/05/20 04:31:09;;;;;;;20.77;18.50;;;13.70;99.90;;;;;;5018836;28;20288;-54
2022/05/20 04:33:37;;;;;;;21.30;18.33;;;13.80;99.90;;;;;;5023954;28;20664;-53
2022/05/20 04:36:05;;;;;;;21.67;18.37;;;13.80;99.90;;;;;;5020388;28;20204;-53
2022/05/20 04:38:33;;;;;;;21.70;18.13;;;13.90;99.90;;;;;;5020473;28;20649;-55
2022/05/20 04:49:15;;;;;;;21.50;19.20;;;14.00;99.90;;;;;;5019257;28;20286;-55
2022/05/20 04:51:42;;;;;;;23.73;20.07;;;14.10;99.90;;;;;;5022890;28;20284;-55
2022/05/20 04:56:55;;;;;;;24.13;19.73;;;14.10;99.90;;;;;;5016720;28;20240;-53
2022/05/20 04:59:24;;;;;;;27.60;20.83;;;14.30;99.90;;;;;;5016550;28;20315;-53
2022/05/20 05:01:52;;;;;;;25.47;20.80;;;14.40;99.90;;;;;;5015500;28;20194;-54
2022/05/20 05:04:20;;;;;;;28.43;21.97;;;14.50;99.90;;;;;;5021480;28;20728;-53
2022/05/20 05:06:47;;;;;;;23.57;19.93;;;14.60;99.90;;;;;;5023605;28;20728;-53
2022/05/20 05:09:15;;;;;;;26.60;21.60;;;14.60;99.90;;;;;;5015405;28;20226;-53
2022/05/20 05:11:42;;;;;;;25.93;22.27;;;14.70;99.90;;;;;;5018648;28;20659;-53
2022/05/20 05:14:12;;;;;;;26.43;21.30;;;14.80;99.90;;;;;;5018100;28;20292;-53
2022/05/20 05:16:39;;;;;;;24.70;19.77;;;14.80;99.90;;;;;;5021390;28;20208;-53
2022/05/20 05:19:06;;;;;;;23.77;20.97;;;14.80;99.90;;;;;;5020526;28;20220;-54
2022/05/20 05:21:34;;;;;;;24.50;20.63;;;14.80;99.90;;;;;;5017960;28;20237;-54
2022/05/20 05:24:02;;;;;;;23.77;20.53;;;14.80;99.90;;;;;;5018533;28;20297;-54
2022/05/20 05:26:32;;;;;;;26.07;21.40;;;14.90;99.90;;;;;;5021603;28;20221;-54
2022/05/20 05:29:00;;;;;;;24.50;19.87;;;15.00;99.90;;;;;;5019080;28;20273;-53
2022/05/20 05:31:27;;;;;;;26.53;19.60;;;15.00;99.90;;;;;;5023173;28;20213;-53
2022/05/20 05:33:54;;;;;;;23.30;18.53;;;15.10;99.90;;;;;;5020255;28;20536;-54
2022/05/20 05:36:21;;;;;;;23.67;19.47;;;15.20;99.90;;;;;;5019617;28;20198;-53
2022/05/20 05:38:48;;;;;;;23.67;17.63;;;15.10;99.90;;;;;;5018290;28;20240;-54
2022/05/20 05:41:17;;;;;;;24.73;17.57;;;15.10;99.90;;;;;;5021256;28;20200;-54
2022/05/20 05:43:45;;;;;;;24.47;18.47;;;15.10;99.90;;;;;;5019632;28;20205;-54
2022/05/20 05:46:12;;;;;;;23.80;18.13;;;15.20;99.90;;;;;;5020961;28;20233;-54
2022/05/20 05:48:39;;;;;;;19.50;17.43;;;15.40;99.90;;;;;;5021018;28;20226;-54
2022/05/20 05:51:06;;;;;;;22.27;17.50;;;15.50;99.90;;;;;;5004781;28;20274;-53
2022/05/20 05:53:33;;;;;;;21.07;17.30;;;15.50;99.90;;;;;;5018240;28;20857;-54
2022/05/20 05:56:01;;;;;;;19.80;16.27;;;15.30;99.90;;;;;;5014638;28;20236;-53
2022/05/20 05:58:29;;;;;;;19.67;16.70;;;15.30;99.90;;;;;;5024376;28;20234;-53
2022/05/20 06:00:56;;;;;;;20.20;16.07;;;15.30;99.90;;;;;;5008192;28;20247;-53
2022/05/20 06:03:24;;;;;;;22.27;16.97;;;15.30;99.90;;;;;;5023667;28;20203;-53
2022/05/20 06:05:51;;;;;;;22.10;16.97;;;15.40;99.90;;;;;;5021577;28;20575;-53
2022/05/20 06:08:19;;;;;;;22.57;16.80;;;15.50;99.90;;;;;;5020354;28;20691;-53
2022/05/20 06:10:46;;;;;;;21.27;16.30;;;15.50;99.90;;;;;;5015342;28;20235;-54
2022/05/20 06:13:24;;;;;;;19.93;16.13;;;15.60;99.90;;;;;;5019481;28;20209;-54
2022/05/20 06:15:55;;;;;;;21.57;17.03;;;15.60;99.90;;;;;;5020869;28;20626;-54
2022/05/20 06:18:23;;;;;;;21.17;16.70;;;15.70;99.90;;;;;;5031075;28;20238;-54
2022/05/20 06:20:50;;;;;;;22.03;16.33;;;15.80;99.90;;;;;;5022440;28;20545;-54
2022/05/20 06:23:17;;;;;;;18.33;15.03;;;15.90;99.90;;;;;;5019739;28;20603;-54
2022/05/20 06:25:44;;;;;;;17.87;13.63;;;16.00;99.90;;;;;;5026772;28;20932;-53
2022/05/20 06:28:31;;;;;;;15.53;13.13;;;15.90;99.90;;;;;;5018867;28;20201;-54
2022/05/20 06:31:04;;;;;;;18.63;13.87;;;15.80;99.90;;;;;;5024566;28;20199;-54
2022/05/20 06:33:31;;;;;;;21.43;14.43;;;16.00;99.90;;;;;;5021340;28;20557;-54
2022/05/20 06:41:29;;;;;;;17.13;14.57;;;16.20;99.90;;;;;;5026516;28;20206;-54
2022/05/20 06:43:55;;;;;;;21.30;14.17;;;16.20;99.90;;;;;;5022037;28;20215;-53
2022/05/20 06:46:23;;;;;;;16.53;14.70;;;16.30;99.90;;;;;;5023494;28;20647;-53
2022/05/20 06:48:59;;;;;;;16.10;13.60;;;16.40;99.90;;;;;;5022417;28;20253;-54
2022/05/20 06:51:34;;;;;;;16.40;14.50;;;16.70;99.90;;;;;;5026114;28;20698;-53
2022/05/20 06:54:03;;;;;;;15.07;13.47;;;17.10;99.90;;;;;;5023206;28;20202;-54
2022/05/20 06:56:30;;;;;;;16.47;13.20;;;17.40;99.90;;;;;;5016574;28;20743;-56
2022/05/20 06:58:59;;;;;;;15.67;13.33;;;17.30;99.90;;;;;;5007466;28;20290;-53
2022/05/20 07:01:27;;;;;;;16.27;12.97;;;17.30;99.90;;;;;;5030960;28;20276;-53
2022/05/20 07:03:54;;;;;;;17.10;13.33;;;17.50;99.90;;;;;;5016445;28;20924;-54
2022/05/20 07:06:22;;;;;;;17.10;14.13;;;17.70;99.90;;;;;;5021737;28;20238;-54
2022/05/20 07:08:50;;;;;;;16.30;12.80;;;18.00;99.90;;;;;;5010055;28;20223;-53
2022/05/20 07:11:19;;;;;;;9.47;8.57;;;18.10;99.90;;;;;;5015975;28;20193;-54
2022/05/20 07:13:47;;;;;;;14.43;11.00;;;18.40;99.90;;;;;;5014669;28;21735;-53
2022/05/20 07:16:17;;;;;;;16.27;11.27;;;18.70;99.90;;;;;;5016837;28;20207;-54
2022/05/20 07:18:44;;;;;;;17.23;11.27;;;19.10;99.90;;;;;;5014777;28;20193;-53
2022/05/20 07:21:11;;;;;;;13.70;10.13;;;19.10;99.90;;;;;;5015046;28;20315;-53
2022/05/20 07:23:37;;;;;;;14.93;10.50;;;19.00;99.90;;;;;;5019296;28;20224;-53
2022/05/20 07:26:05;;;;;;;12.43;9.70;;;19.20;99.90;;;;;;5021059;28;20198;-53
2022/05/20 07:28:33;;;;;;;15.63;10.30;;;19.30;99.90;;;;;;5017551;28;20536;-53
2022/05/20 07:30:59;;;;;;;11.53;9.80;;;19.00;99.90;;;;;;5023021;28;20198;-54
2022/05/20 07:33:28;;;;;;;9.07;8.17;;;19.20;99.90;;;;;;5021183;28;20205;-54
2022/05/20 07:35:56;;;;;;;11.50;8.60;;;19.30;99.90;;;;;;5030227;28;20204;-53
2022/05/20 07:38:22;;;;;;;8.77;7.63;;;19.20;99.90;;;;;;5016712;28;20277;-54
2022/05/20 07:40:50;;;;;;;10.97;7.73;;;19.60;99.90;;;;;;5024946;28;20672;-54
2022/05/20 07:43:22;;;;;;;12.77;7.27;;;19.60;99.90;;;;;;5023620;28;20204;-54
2022/05/20 07:45:50;;;;;;;8.73;7.17;;;19.60;99.90;;;;;;5021832;28;20204;-53
2022/05/20 07:48:18;;;;;;;11.83;8.37;;;19.80;99.90;;;;;;5024717;28;20281;-52
2022/05/20 07:50:51;;;;;;;10.73;7.30;;;19.70;99.90;;;;;;5022082;28;20237;-53
2022/05/20 07:53:21;;;;;;;9.53;6.63;;;19.80;99.90;;;;;;5026465;28;20258;-53
2022/05/20 07:55:53;;;;;;;12.00;6.70;;;19.90;99.90;;;;;;5023486;28;20204;-54
2022/05/20 07:58:24;;;;;;;7.63;6.80;;;19.90;99.90;;;;;;5023273;28;20657;-54
2022/05/20 08:01:11;;;;;;;7.73;6.17;;;20.00;99.90;;;;;;5022928;28;20251;-54
2022/05/20 08:06:28;;;;;;;8.50;6.83;;;19.50;99.90;;;;;;5015562;28;20632;-53
2022/05/20 08:08:54;;;;;;;8.63;6.77;;;19.20;99.90;;;;;;5023119;28;20291;-53
2022/05/20 08:11:21;;;;;;;8.13;6.80;;;19.30;99.90;;;;;;5025317;28;20673;-54
2022/05/20 08:13:50;;;;;;;9.10;6.60;;;19.20;99.90;;;;;;5023998;28;20778;-54
2022/05/20 08:16:18;;;;;;;10.37;7.70;;;19.40;99.90;;;;;;5032396;28;20209;-54
2022/05/20 08:18:46;;;;;;;7.67;6.87;;;19.60;99.90;;;;;;5021243;28;20201;-54
2022/05/20 08:21:12;;;;;;;8.67;7.07;;;19.40;99.90;;;;;;5025847;28;20252;-53
2022/05/20 08:23:39;;;;;;;9.77;6.30;;;19.40;99.90;;;;;;5015428;28;20248;-54
2022/05/20 08:26:06;;;;;;;9.97;7.13;;;19.70;99.90;;;;;;5020334;28;20615;-54
2022/05/20 08:28:33;;;;;;;9.93;7.50;;;19.90;99.90;;;;;;5025674;28;20201;-55
2022/05/20 08:31:00;;;;;;;14.20;8.23;;;19.80;99.90;;;;;;5021927;28;20256;-54
2022/05/20 08:33:26;;;;;;;10.40;7.20;;;19.60;99.90;;;;;;5025880;28;20239;-54
2022/05/20 08:35:53;;;;;;;10.23;6.97;;;19.70;99.90;;;;;;5020490;28;20201;-55
2022/05/20 08:38:21;;;;;;;7.43;6.67;;;20.00;99.90;;;;;;5026134;28;20201;-54
2022/05/20 08:40:49;;;;;;;10.83;7.77;;;20.10;99.90;;;;;;5022421;28;20304;-54
2022/05/20 08:43:24;;;;;;;15.07;7.63;;;20.30;99.90;;;;;;5022235;28;20223;-53
2022/05/20 08:45:52;;;;;;;10.77;6.87;;;20.40;99.90;;;;;;5020545;28;20234;-54
2022/05/20 08:48:18;;;;;;;11.13;6.50;;;20.20;99.90;;;;;;5023435;28;20197;-54
2022/05/20 08:50:47;;;;;;;8.83;6.67;;;20.00;99.90;;;;;;5023954;28;20209;-54
2022/05/20 08:53:20;;;;;;;9.73;7.03;;;20.10;99.90;;;;;;5020627;28;20403;-54
2022/05/20 08:55:48;;;;;;;9.30;7.47;;;20.30;99.90;;;;;;5021697;28;20212;-54
2022/05/20 08:58:19;;;;;;;10.17;8.27;;;20.30;99.90;;;;;;5019108;28;20201;-53
2022/05/20 09:00:46;;;;;;;7.90;7.00;;;20.10;99.90;;;;;;5027596;28;20213;-53
2022/05/20 09:03:13;;;;;;;9.40;7.17;;;20.00;99.90;;;;;;5020268;28;20243;-54
2022/05/20 09:05:42;;;;;;;10.13;7.33;;;20.10;99.90;;;;;;5022695;28;20729;-55
2022/05/20 09:08:25;;;;;;;7.63;6.50;;;20.10;99.90;;;;;;5022504;28;20194;-54
2022/05/20 09:10:57;;;;;;;12.60;7.93;;;20.30;99.90;;;;;;5019927;28;20258;-53
2022/05/20 09:16:14;;;;;;;9.47;6.70;;;20.50;99.90;;;;;;5027608;28;20262;-54
2022/05/20 09:18:44;;;;;;;9.80;6.90;;;20.50;99.90;;;;;;5022306;28;20236;-54
2022/05/20 09:21:26;;;;;;;10.13;7.60;;;20.60;99.90;;;;;;5023535;28;20651;-56
2022/05/20 09:23:57;;;;;;;8.97;6.47;;;20.20;99.90;;;;;;5025296;28;20402;-57
2022/05/20 09:26:30;;;;;;;9.43;7.27;;;20.20;99.90;;;;;;5016971;28;20316;-54
2022/05/20 09:29:12;;;;;;;9.33;7.40;;;20.40;99.90;;;;;;5017014;28;20201;-54
2022/05/20 09:32:03;;;;;;;10.20;6.80;;;20.30;99.90;;;;;;5020798;28;20332;-54
2022/05/20 09:34:38;;;;;;;8.37;7.00;;;20.60;99.90;;;;;;5018997;28;20204;-54
2022/05/20 09:37:16;;;;;;;11.57;7.30;;;20.60;99.90;;;;;;5020193;28;20223;-54
2022/05/20 09:39:47;;;;;;;9.77;7.17;;;20.70;99.90;;;;;;5009166;28;20231;-54
2022/05/20 09:42:16;;;;;;;8.20;7.40;;;20.70;99.90;;;;;;5010690;28;20332;-54
2022/05/20 09:45:12;;;;;;;9.93;6.87;;;20.90;99.90;;;;;;5018123;28;20230;-59
2022/05/20 09:47:53;;;;;;;10.37;6.83;;;20.80;99.90;;;;;;5019273;28;20280;-55
2022/05/20 09:50:28;;;;;;;10.33;7.10;;;21.30;99.90;;;;;;5018959;28;20204;-54
2022/05/20 09:53:13;;;;;;;8.53;7.43;;;21.40;99.90;;;;;;5022924;28;20224;-53
2022/05/20 09:55:45;;;;;;;8.90;7.20;;;21.10;99.90;;;;;;5019353;28;20386;-54
2022/05/20 09:58:27;;;;;;;9.40;6.83;;;21.10;99.90;;;;;;5017351;28;20628;-54
2022/05/20 10:01:00;;;;;;;10.83;7.43;;;20.90;99.90;;;;;;5018196;28;20208;-54
2022/05/20 10:03:38;;;;;;;10.50;7.27;;;20.80;99.90;;;;;;5024269;28;20529;-54
2022/05/20 10:06:23;;;;;;;10.23;7.80;;;20.80;99.90;;;;;;5020325;28;20235;-56
2022/05/20 10:09:10;;;;;;;12.77;8.33;;;20.70;99.90;;;;;;5018752;28;20735;-53
2022/05/20 10:11:55;;;;;;;10.13;7.37;;;20.80;99.90;;;;;;5018913;28;20302;-53
2022/05/20 10:14:27;;;;;;;11.33;7.33;;;20.70;99.90;;;;;;5013389;28;20298;-54
2022/05/20 10:17:20;;;;;;;9.37;7.17;;;20.70;99.90;;;;;;5022093;28;20234;-53
2022/05/20 10:19:55;;;;;;;8.77;7.07;;;20.50;99.90;;;;;;5020196;28;20225;-54
2022/05/20 10:22:49;;;;;;;8.33;5.30;;;20.60;99.90;;;;;;5016511;28;20270;-54
2022/05/20 10:25:34;;;;;;;13.75;7.90;;;21.00;99.90;;;;;;5018550;28;20931;-54
2022/05/20 10:28:12;;;;;;;9.50;6.77;;;21.00;99.90;;;;;;5019033;28;20203;-54
2022/05/20 10:33:44;;;;;;;10.10;6.23;;;20.40;99.90;;;;;;5012076;28;20258;-53
2022/05/20 10:36:19;;;;;;;9.97;5.73;;;20.60;99.90;;;;;;5016597;28;20620;-54
2022/05/20 10:39:18;;;;;;;9.13;5.67;;;20.60;99.90;;;;;;5013700;28;20660;-55
2022/05/20 10:42:27;;;;;;;10.50;6.13;;;20.80;99.90;;;;;;4999643;28;20243;-53
2022/05/20 10:48:38;;;;;;;7.90;6.57;;;21.10;99.90;;;;;;5012758;28;20287;-54
2022/05/20 10:51:05;;;;;;;12.27;6.30;;;21.00;99.90;;;;;;5003779;28;20230;-54
2022/05/20 10:54:06;;;;;;;12.53;8.07;;;21.10;99.90;;;;;;5015733;28;20199;-55
2022/05/20 10:57:06;;;;;;;18.53;8.40;;;20.80;99.90;;;;;;5024932;28;20207;-54
2022/05/20 11:00:00;;;;;;;9.03;7.23;;;20.60;99.90;;;;;;5020096;28;20206;-54
2022/05/20 11:02:47;;;;;;;10.17;6.93;;;20.70;99.90;;;;;;5019778;28;20541;-57
2022/05/20 11:05:43;;;;;;;8.37;7.47;;;20.90;99.90;;;;;;5021043;28;20233;-54
2022/05/20 11:08:28;;;;;;;12.03;8.33;;;21.00;99.90;;;;;;5018802;28;20915;-54
2022/05/20 11:11:11;;;;;;;10.07;7.80;;;21.00;99.90;;;;;;5021503;28;20245;-54
2022/05/20 11:13:47;;;;;;;9.80;7.30;;;20.80;99.90;;;;;;5021599;28;20235;-54
2022/05/20 11:16:26;;;;;;;11.07;8.57;;;21.00;99.90;;;;;;5029148;28;20630;-54
2022/05/20 11:19:14;;;;;;;12.13;9.17;;;21.10;99.90;;;;;;5022009;28;20212;-54
2022/05/20 11:21:59;;;;;;;10.87;8.70;;;21.00;99.90;;;;;;5018476;28;20220;-54
2022/05/20 11:24:34;;;;;;;14.93;8.90;;;21.10;99.90;;;;;;5016610;28;20204;-54
2022/05/20 11:27:01;;;;;;;13.13;8.83;;;21.00;99.90;;;;;;5011535;28;20196;-59
2022/05/20 11:29:42;;;;;;;13.57;9.50;;;21.10;99.90;;;;;;5020371;28;20666;-54
2022/05/20 11:32:22;;;;;;;12.80;9.13;;;21.10;99.90;;;;;;5018866;28;20636;-54
2022/05/20 11:35:07;;;;;;;13.00;8.53;;;21.00;99.90;;;;;;5020298;28;20197;-54
2022/05/20 11:37:46;;;;;;;13.90;10.37;;;21.10;99.90;;;;;;5012048;28;20668;-54
2022/05/20 11:40:43;;;;;;;12.80;9.33;;;21.20;99.90;;;;;;5019857;28;20217;-53
2022/05/20 11:43:19;;;;;;;14.97;10.20;;;21.20;99.90;;;;;;5020760;28;20791;-54
2022/05/20 11:45:49;;;;;;;12.93;10.10;;;21.30;99.90;;;;;;5024071;28;20227;-54
2022/05/20 11:48:46;;;;;;;14.17;10.33;;;21.10;99.90;;;;;;5021937;28;20599;-55
2022/05/20 11:51:51;;;;;;;18.20;10.80;;;21.00;99.90;;;;;;5019624;28;20235;-55
2022/05/20 11:54:48;;;;;;;13.03;10.97;;;21.00;99.90;;;;;;5015305;28;20292;-54
2022/05/20 11:57:26;;;;;;;16.03;11.10;;;20.80;99.90;;;;;;5016873;28;20688;-54
2022/05/20 12:00:09;;;;;;;13.70;11.53;;;20.80;99.90;;;;;;5021365;28;20206;-53
2022/05/20 12:03:03;;;;;;;14.13;12.07;;;20.70;99.90;;;;;;5017230;28;20185;-56
2022/05/20 12:05:35;;;;;;;15.10;12.67;;;20.50;99.90;;;;;;5021159;28;21171;-53
2022/05/20 12:08:02;;;;;;;13.97;12.17;;;20.60;99.90;;;;;;5018301;28;20633;-55
2022/05/20 12:10:34;;;;;;;20.93;11.97;;;20.50;99.90;;;;;;5022746;28;20197;-55
2022/05/20 12:13:20;;;;;;;16.50;12.80;;;20.50;99.90;;;;;;5018115;28;20229;-55
2022/05/20 12:16:06;;;;;;;16.83;13.73;;;20.40;99.90;;;;;;5024428;28;20738;-54
2022/05/20 12:24:38;;;;;;;22.03;18.23;;;20.10;99.90;;;;;;5010467;28;20850;-54
2022/05/20 12:27:25;;;;;;;24.17;18.50;;;20.00;99.90;;;;;;4998322;28;20669;-53
2022/05/20 12:30:16;;;;;;;24.17;19.43;;;19.90;99.90;;;;;;5006894;28;20211;-54
2022/05/20 12:32:46;;;;;;;28.57;20.70;;;19.70;99.90;;;;;;5022309;28;20697;-57
2022/05/20 12:35:15;;;;;;;25.97;21.03;;;19.70;99.90;;;;;;5015741;28;20203;-53
2022/05/20 12:37:42;;;;;;;28.57;22.23;;;19.60;99.90;;;;;;5016174;28;20200;-54
2022/05/20 12:40:18;;;;;;;27.30;22.07;;;19.60;99.90;;;;;;5012225;28;20671;-54
2022/05/20 12:42:55;;;;;;;25.43;21.93;;;19.60;99.90;;;;;;5017191;28;20351;-55
2022/05/20 12:45:25;;;;;;;27.90;23.13;;;19.60;99.90;;;;;;5016636;28;20205;-53
2022/05/20 12:47:56;;;;;;;31.90;24.80;;;19.50;99.90;;;;;;5012050;28;20236;-53
2022/05/20 12:50:26;;;;;;;28.13;22.00;;;19.40;99.90;;;;;;5015102;28;20303;-54
2022/05/20 12:52:59;;;;;;;31.73;23.67;;;19.40;99.90;;;;;;5018641;28;20489;-54
2022/05/20 12:55:45;;;;;;;31.63;24.83;;;19.60;99.90;;;;;;5017906;28;20625;-53
2022/05/20 12:58:14;;;;;;;32.23;25.27;;;19.80;99.90;;;;;;5013771;28;20294;-53
2022/05/20 13:00:44;;;;;;;32.60;24.43;;;20.10;99.90;;;;;;5011794;28;20252;-54
2022/05/20 13:03:33;;;;;;;28.83;22.87;;;20.30;99.90;;;;;;5022193;28;20326;-54
2022/05/20 13:06:09;;;;;;;28.43;23.70;;;20.40;99.90;;;;;;5018155;28;21046;-54
2022/05/20 13:09:01;;;;;;;30.80;24.10;;;20.40;99.90;;;;;;5023140;28;20354;-54
2022/05/20 13:11:41;;;;;;;30.27;23.87;;;20.30;99.90;;;;;;5026136;28;20613;-54
2022/05/20 13:14:12;;;;;;;31.83;24.13;;;20.30;99.90;;;;;;5015299;28;20203;-54
2022/05/20 13:16:43;;;;;;;30.27;24.80;;;20.30;99.90;;;;;;5014329;28;20566;-54
2022/05/20 13:19:16;;;;;;;31.03;24.27;;;20.20;99.90;;;;;;5015185;28;20200;-53
2022/05/20 13:21:50;;;;;;;36.17;25.77;;;20.20;99.90;;;;;;5011787;28;20231;-53
2022/05/20 13:24:23;;;;;;;34.83;26.00;;;20.20;99.90;;;;;;5007980;28;20330;-54
2022/05/20 13:27:13;;;;;;;34.87;26.13;;;20.10;99.90;;;;;;5016578;28;20235;-53
2022/05/20 13:29:42;;;;;;;36.20;26.40;;;20.00;99.90;;;;;;5014258;28;20612;-54
2022/05/20 13:32:16;;;;;;;34.57;26.57;;;20.10;99.90;;;;;;5013221;28;20670;-55
2022/05/20 13:34:50;;;;;;;35.73;27.07;;;20.10;99.90;;;;;;5022825;28;20319;-52
2022/05/20 13:37:43;;;;;;;37.90;28.50;;;20.10;99.90;;;;;;5023124;28;21599;-55
2022/05/20 13:40:14;;;;;;;40.07;28.33;;;19.80;99.90;;;;;;5013787;28;20291;-54
2022/05/20 13:42:48;;;;;;;38.80;28.57;;;19.80;99.90;;;;;;5013877;28;20670;-54